Weather Models
Both GFS & NAM
00z 06z 12z 18z
24hr Precip
00z 06z 12z 18z
36hr Simulated radar
00z 06z 12z 18z
SKEWT Soundings
00z 12z
Current Conditions (Updated 11:25am on 1/22/18)
Temperature
 52°
2.46
52°  
46°  
0
10
20
30
40
50
60
70
80
90
100
Dew Point
39°
39°  
34°  
-20
-10
0
10
20
30
40
50
60
70
80
Wind Chill
52°
52°  
42°  
-20
-10
0
10
20
30
40
50
60
70
80
Wind Chill
Humidity
61%
67% 
61% 
0
10
20
30
40
50
60
70
80
90
100
Barometer
30.19
   Steady
30.19  
30.13  
28.00
28.30
28.60
28.90
29.20
29.50
29.80
30.10
30.40
30.70
31.00
Temperature
Dew Point
Humidity
Pressure
Wind
4mph
  S
Daily Rain
.00
.05
.10
.15
.20
.25
.30
.35
.40
.45
.50
Rain Today
 0.00" 
Month Rain
0.00
0.20
0.40
0.60
0.80
1.00
1.20
1.40
1.60
1.80
2.00
Month Rain
 0.82" 
Year Rain
0.00
0.25
0.50
0.75
1.00
1.25
1.50
1.75
2.00
2.25
2.50
Year Rain
 0.82" 
Sun & Moon Data
Sunrise 7:15am
Sunset 5:06pm
Moonrise 10:23am
Moonset 10:40pm
Moon % 26%
Other Rain Data
Past Hour 0.00 Past 24 Hours 0.00
Past 3 Hours 0.00 Past 7 Days 0.09
Past 6 Hours 0.00
Cloud Height
3259


Current Front Map
Current Satellite map
7 Day Forecast
NWS Forecast for Philadelphia PA
National Weather Service Forecast for: Philadelphia PA
Issued by: National Weather Service Philadelphia, PA
Updated: 9:41 am EST Jan 22, 2018

Philadelphia
 
Today

Today: Cloudy, with a high near 54. Light southeast wind.
Cloudy

Tonight

Tonight: Showers, mainly after 5am.  Low around 45. East wind around 5 mph.  Chance of precipitation is 80%. New precipitation amounts of less than a tenth of an inch possible.
Mostly Cloudy
then Showers
Tuesday

Tuesday: Rain and possibly a thunderstorm before 1pm, then showers likely, mainly between 1pm and 4pm.  High near 62. South wind 9 to 16 mph becoming west in the afternoon.  Chance of precipitation is 90%. New rainfall amounts between a half and three quarters of an inch possible.
Showers

Tuesday
Night
Tuesday Night: A chance of showers before 7pm.  Partly cloudy, with a low around 35. West wind 7 to 9 mph, with gusts as high as 21 mph.  Chance of precipitation is 30%. New precipitation amounts of less than a tenth of an inch possible.
Chance
Showers then
Partly Cloudy
Wednesday

Wednesday: Mostly sunny, with a high near 43. West wind 7 to 14 mph.
Mostly Sunny

Wednesday
Night
Wednesday Night: Partly cloudy, with a low around 26.
Partly Cloudy

Thursday

Thursday: Sunny, with a high near 38.
Sunny

Thursday
Night
Thursday Night: Mostly clear, with a low around 23.
Mostly Clear

Friday

Friday: Sunny, with a high near 41.
Sunny

Hi 54 °F Lo 45 °F Hi 62 °F Lo 35 °F Hi 43 °F Lo 26 °F Hi 38 °F Lo 23 °F Hi 41 °F

 

Today
 
Cloudy, with a high near 54. Light southeast wind.
Tonight
 
Showers, mainly after 5am. Low around 45. East wind around 5 mph. Chance of precipitation is 80%. New precipitation amounts of less than a tenth of an inch possible.
Tuesday
 
Rain and possibly a thunderstorm before 1pm, then showers likely, mainly between 1pm and 4pm. High near 62. South wind 9 to 16 mph becoming west in the afternoon. Chance of precipitation is 90%. New rainfall amounts between a half and three quarters of an inch possible.
Tuesday Night
 
A chance of showers before 7pm. Partly cloudy, with a low around 35. West wind 7 to 9 mph, with gusts as high as 21 mph. Chance of precipitation is 30%. New precipitation amounts of less than a tenth of an inch possible.
Wednesday
 
Mostly sunny, with a high near 43. West wind 7 to 14 mph.
Wednesday Night
 
Partly cloudy, with a low around 26.
Thursday
 
Sunny, with a high near 38.
Thursday Night
 
Mostly clear, with a low around 23.
Friday
 
Sunny, with a high near 41.
Friday Night
 
Mostly clear, with a low around 29.
Saturday
 
Mostly sunny, with a high near 51.
Saturday Night
 
Mostly cloudy, with a low around 42.
Sunday
 
Rain likely. Mostly cloudy, with a high near 55. Chance of precipitation is 60%.

 

Forecast from NOAA-NWS for Philadelphia PA.

Area Weather Current Conditions
Nearby METAR Reports

KPHL - Philadelphia, Pennsylvania
Updated: Mon, 22-Jan-2018 10:54am EST
Overcast
Overcast
 Wind from varies
Wind: varies 6 mph , 9 km/h
Temperature: 52°F , 11°C
Dew Point: 39°F , 4°C
Humidity: 62%
Barometer: 30.19 inHg , 1022.4 hPa
Clouds: Overcast
Visibility: 10 miles , 16 km
Cloud details: Few Clouds 7500 ft
Mostly Cloudy 11000 ft
Overcast 27000 ft
2018/01/22 15:54 KPHL 221554Z VRB05KT 10SM FEW075 BKN110 OVC270 11/04 A3019 RMK AO2 SLP221 T01060039
KMPO - Mt. Pocono, Pennsylvania
Updated: Mon, 22-Jan-2018 10:53am EST
Partly Cloudy
Partly Cloudy
 Wind from ESE
Wind: ESE 6 mph , 9 km/h
Temperature: 46°F , 8°C
Wind Chill: 43°F , 6°C
Dew Point: 46°F , 8°C
Humidity: 100%
Barometer: 30.12 inHg , 1020 hPa
Clouds: Partly Cloudy
Visibility: 10 miles , 16 km
Cloud details: Partly Cloudy 10000 ft
2018/01/22 15:53 KMPO 221553Z AUTO 11005KT 10SM SCT100 08/08 A3012 RMK AO2 SLP208 T00830078
 
KACY - Atlantic City, New Jersey
Updated: Mon, 22-Jan-2018 10:54am EST
Overcast
Overcast
 Wind from SE
Wind: SE 5 mph , 7 km/h
Temperature: 52°F , 11°C
Dew Point: 41°F , 5°C
Humidity: 67%
Barometer: 30.18 inHg , 1022 hPa
Clouds: Overcast
Visibility: 10 miles , 16 km
Cloud details: Partly Cloudy 7000 ft
Overcast 11000 ft
2018/01/22 15:54 KACY 221554Z 14004KT 10SM SCT070 OVC110 11/05 A3018 RMK AO2 SLP220 T01110050
KMIV - Millville, New Jersey
Updated: Mon, 22-Jan-2018 10:54am EST
Overcast
Overcast
 Wind from SSE
Wind: SSE 3 mph , 6 km/h
Temperature: 54°F , 12°C
Dew Point: 43°F , 6°C
Humidity: 67%
Barometer: 30.17 inHg , 1021.7 hPa
Clouds: Overcast
Visibility: 10 miles , 16 km
Cloud details: Overcast 11000 ft
2018/01/22 15:54 KMIV 221554Z AUTO 15003KT 10SM OVC110 12/06 A3017 RMK AO2 SLP217 T01170056
 
KWWD - Wildwood, New Jersey
Updated: Mon, 22-Jan-2018 10:55am EST
Overcast
Overcast
 Wind from S
Wind: S 6 mph , 9 km/h
Temperature: 55°F , 13°C
Dew Point: 41°F , 5°C
Humidity: 59%
Barometer: 30.18 inHg , 1022 hPa
Clouds: Overcast
Visibility: 10 miles , 16 km
Cloud details: Few Clouds 10000 ft
Overcast 11000 ft
2018/01/22 15:55 KWWD 221555Z AUTO 17005KT 10SM FEW100 OVC110 13/05 A3018 RMK AO2 SLP222 T01280050
KDOV - Dover Afb, Delaware
Updated: Mon, 22-Jan-2018 10:56am EST
Overcast
Overcast
 Wind from SSW
Wind: SSW 8 mph , 13 km/h
Temperature: 59°F , 15°C
Dew Point: 46°F , 8°C
Humidity: 63%
Barometer: 30.16 inHg , 1021.3 hPa
Clouds: Overcast
Visibility: 10 miles , 16 km
Cloud details: Overcast 11000 ft
2018/01/22 15:56 KDOV 221556Z AUTO 21007KT 10SM OVC110 15/08 A3016 RMK AO2 SLP216 T01520075 $
Severe Weather Map
Recent Forum Post
[Philadelphia] 2017 -2018 Winter snow forecast by JC December 06, 2017, 02:00:35 AM
[Philadelphia] Request for Philly Snow Data by JC February 14, 2017, 08:42:21 PM
[Philadelphia] 2016 -2017 Winter snow forecast by JC December 01, 2016, 04:56:31 AM
[Philadelphia] Winter forecast 2016-2017 by xyonist November 30, 2016, 01:14:08 PM
[Philadelphia] 102.7 last Saturday by JC August 20, 2016, 03:26:22 AM
[Philadelphia] 2015 -2016 Winter snow forecast by JC April 19, 2016, 09:42:40 AM
[Philadelphia] Latest Models on Weekend Storm (Photos) by JC January 23, 2016, 12:01:03 PM
[Philadelphia] Possible large snow storm for end of week ? by JC January 21, 2016, 09:17:47 AM